sensor_id;sensor_type;location;lat;lon;timestamp;pressure;altitude;pressure_sealevel;temperature;humidity
6343;BME280;3204;42.698;23.298;2023-02-15T00:01:07;96104.06;;;3.96;73.47
6343;BME280;3204;42.698;23.298;2023-02-15T00:03:33;96104.97;;;4.02;72.92
6343;BME280;3204;42.698;23.298;2023-02-15T00:05:58;96109.19;;;3.98;73.66
6343;BME280;3204;42.698;23.298;2023-02-15T00:08:23;96117.69;;;3.95;73.71
6343;BME280;3204;42.698;23.298;2023-02-15T00:10:49;96119.41;;;4.01;73.65
6343;BME280;3204;42.698;23.298;2023-02-15T00:13:14;96114.88;;;4.01;73.71
6343;BME280;3204;42.698;23.298;2023-02-15T00:15:40;96123.72;;;4.13;72.86
6343;BME280;3204;42.698;23.298;2023-02-15T00:18:06;96128.53;;;4.00;73.47
6343;BME280;3204;42.698;23.298;2023-02-15T00:20:31;96135.06;;;4.04;73.46
6343;BME280;3204;42.698;23.298;2023-02-15T00:22:58;96126.09;;;3.98;73.56
6343;BME280;3204;42.698;23.298;2023-02-15T00:25:23;96127.00;;;4.04;73.13
6343;BME280;3204;42.698;23.298;2023-02-15T00:27:49;96120.06;;;3.91;73.88
6343;BME280;3204;42.698;23.298;2023-02-15T00:30:16;96127.88;;;3.93;74.02
6343;BME280;3204;42.698;23.298;2023-02-15T00:32:41;96128.00;;;3.86;74.33
6343;BME280;3204;42.698;23.298;2023-02-15T00:35:07;96128.94;;;3.92;74.10
6343;BME280;3204;42.698;23.298;2023-02-15T00:37:32;96130.91;;;3.85;74.38
6343;BME280;3204;42.698;23.298;2023-02-15T00:39:58;96131.28;;;3.77;74.43
6343;BME280;3204;42.698;23.298;2023-02-15T00:42:23;96126.97;;;3.76;75.08
6343;BME280;3204;42.698;23.298;2023-02-15T00:44:49;96128.00;;;3.86;74.23
6343;BME280;3204;42.698;23.298;2023-02-15T00:47:14;96134.34;;;3.80;74.80
6343;BME280;3204;42.698;23.298;2023-02-15T00:49:40;96133.72;;;3.90;74.39
6343;BME280;3204;42.698;23.298;2023-02-15T00:52:05;96127.47;;;3.73;74.92
6343;BME280;3204;42.698;23.298;2023-02-15T00:54:31;96131.69;;;3.69;75.11
6343;BME280;3204;42.698;23.298;2023-02-15T00:56:56;96127.38;;;3.68;74.82
6343;BME280;3204;42.698;23.298;2023-02-15T00:59:21;96125.34;;;3.75;74.55
6343;BME280;3204;42.698;23.298;2023-02-15T01:01:47;96129.91;;;3.63;74.99
6343;BME280;3204;42.698;23.298;2023-02-15T01:04:12;96122.03;;;3.56;75.32
6343;BME280;3204;42.698;23.298;2023-02-15T01:06:38;96123.31;;;3.54;75.53
6343;BME280;3204;42.698;23.298;2023-02-15T01:09:03;96128.41;;;3.55;75.28
6343;BME280;3204;42.698;23.298;2023-02-15T01:11:29;96114.31;;;3.60;75.17
6343;BME280;3204;42.698;23.298;2023-02-15T01:13:56;96117.09;;;3.65;74.76
6343;BME280;3204;42.698;23.298;2023-02-15T01:16:24;96118.41;;;3.62;74.49
6343;BME280;3204;42.698;23.298;2023-02-15T01:18:50;96118.81;;;3.71;74.71
6343;BME280;3204;42.698;23.298;2023-02-15T01:21:17;96116.50;;;3.63;74.66
6343;BME280;3204;42.698;23.298;2023-02-15T01:23:43;96119.44;;;3.73;74.55
6343;BME280;3204;42.698;23.298;2023-02-15T01:26:09;96118.63;;;3.61;75.01
6343;BME280;3204;42.698;23.298;2023-02-15T01:28:35;96106.41;;;3.53;74.63
6343;BME280;3204;42.698;23.298;2023-02-15T01:31:08;96113.59;;;3.64;75.43
6343;BME280;3204;42.698;23.298;2023-02-15T01:33:35;96116.38;;;3.69;74.21
6343;BME280;3204;42.698;23.298;2023-02-15T01:36:01;96110.13;;;3.64;74.96
6343;BME280;3204;42.698;23.298;2023-02-15T01:38:26;96114.88;;;3.62;74.79
6343;BME280;3204;42.698;23.298;2023-02-15T01:40:52;96106.72;;;3.57;75.08
6343;BME280;3204;42.698;23.298;2023-02-15T01:43:18;96110.81;;;3.59;75.33
6343;BME280;3204;42.698;23.298;2023-02-15T01:45:46;96104.84;;;3.69;75.14
6343;BME280;3204;42.698;23.298;2023-02-15T01:48:27;96102.88;;;3.64;75.10
6343;BME280;3204;42.698;23.298;2023-02-15T01:50:56;96093.91;;;3.59;74.75
6343;BME280;3204;42.698;23.298;2023-02-15T01:53:25;96093.44;;;3.62;75.35
6343;BME280;3204;42.698;23.298;2023-02-15T01:55:57;96082.38;;;3.47;76.18
6343;BME280;3204;42.698;23.298;2023-02-15T01:58:25;96080.25;;;3.60;75.41
6343;BME280;3204;42.698;23.298;2023-02-15T02:00:51;96087.50;;;3.60;75.54
6343;BME280;3204;42.698;23.298;2023-02-15T02:03:17;96084.84;;;3.48;75.73
6343;BME280;3204;42.698;23.298;2023-02-15T02:05:44;96085.19;;;3.52;76.13
6343;BME280;3204;42.698;23.298;2023-02-15T02:08:09;96081.91;;;3.61;75.33
6343;BME280;3204;42.698;23.298;2023-02-15T02:10:35;96087.16;;;3.56;75.13
6343;BME280;3204;42.698;23.298;2023-02-15T02:13:04;96086.69;;;3.48;75.89
6343;BME280;3204;42.698;23.298;2023-02-15T02:15:53;96096.00;;;3.57;75.93
6343;BME280;3204;42.698;23.298;2023-02-15T02:21:51;96098.69;;;3.57;76.13
6343;BME280;3204;42.698;23.298;2023-02-15T02:40:42;96098.13;;;3.55;76.69
6343;BME280;3204;42.698;23.298;2023-02-15T02:43:18;96103.00;;;3.58;76.03
6343;BME280;3204;42.698;23.298;2023-02-15T02:45:51;96100.81;;;3.55;76.52
6343;BME280;3204;42.698;23.298;2023-02-15T02:48:22;96097.53;;;3.53;76.70
6343;BME280;3204;42.698;23.298;2023-02-15T02:50:50;96101.25;;;3.52;76.85
6343;BME280;3204;42.698;23.298;2023-02-15T02:53:15;96091.03;;;3.49;77.03
6343;BME280;3204;42.698;23.298;2023-02-15T02:55:45;96098.13;;;3.55;77.02
6343;BME280;3204;42.698;23.298;2023-02-15T02:58:29;96113.47;;;3.71;76.84
6343;BME280;3204;42.698;23.298;2023-02-15T03:01:02;96114.66;;;3.63;77.20
6343;BME280;3204;42.698;23.298;2023-02-15T03:03:34;96107.63;;;3.74;76.65
6343;BME280;3204;42.698;23.298;2023-02-15T03:06:05;96114.63;;;3.75;76.21
6343;BME280;3204;42.698;23.298;2023-02-15T03:08:38;96116.72;;;3.84;76.17
6343;BME280;3204;42.698;23.298;2023-02-15T03:11:06;96120.91;;;3.80;75.98
6343;BME280;3204;42.698;23.298;2023-02-15T03:13:32;96125.34;;;3.75;77.01
6343;BME280;3204;42.698;23.298;2023-02-15T03:15:58;96124.88;;;3.78;76.90
6343;BME280;3204;42.698;23.298;2023-02-15T03:18:50;96124.03;;;3.89;76.15
6343;BME280;3204;42.698;23.298;2023-02-15T03:21:27;96119.22;;;3.91;77.04
6343;BME280;3204;42.698;23.298;2023-02-15T03:24:10;96109.66;;;3.95;76.22
6343;BME280;3204;42.698;23.298;2023-02-15T03:26:39;96122.50;;;3.93;77.06
6343;BME280;3204;42.698;23.298;2023-02-15T03:29:06;96123.06;;;3.95;77.23
6343;BME280;3204;42.698;23.298;2023-02-15T03:31:37;96116.19;;;3.99;76.50
6343;BME280;3204;42.698;23.298;2023-02-15T03:34:07;96123.81;;;3.90;77.25
6343;BME280;3204;42.698;23.298;2023-02-15T03:36:51;96128.41;;;4.06;76.72
6343;BME280;3204;42.698;23.298;2023-02-15T03:39:42;96127.09;;;4.09;76.20
6343;BME280;3204;42.698;23.298;2023-02-15T03:42:16;96113.72;;;3.97;77.21
6343;BME280;3204;42.698;23.298;2023-02-15T03:44:56;96121.72;;;4.09;76.73
6343;BME280;3204;42.698;23.298;2023-02-15T03:47:27;96122.97;;;4.18;76.56
6343;BME280;3204;42.698;23.298;2023-02-15T03:50:01;96125.28;;;4.26;75.90
6343;BME280;3204;42.698;23.298;2023-02-15T03:52:29;96117.25;;;4.26;75.86
6343;BME280;3204;42.698;23.298;2023-02-15T03:54:56;96120.00;;;4.31;75.56
6343;BME280;3204;42.698;23.298;2023-02-15T03:57:27;96125.63;;;4.29;75.53
6343;BME280;3204;42.698;23.298;2023-02-15T04:00:17;96122.00;;;4.24;76.08
6343;BME280;3204;42.698;23.298;2023-02-15T04:03:09;96119.09;;;4.25;76.15
6343;BME280;3204;42.698;23.298;2023-02-15T04:05:37;96124.09;;;4.33;75.95
6343;BME280;3204;42.698;23.298;2023-02-15T04:08:03;96121.16;;;4.35;75.69
6343;BME280;3204;42.698;23.298;2023-02-15T04:10:29;96129.13;;;4.30;76.19
6343;BME280;3204;42.698;23.298;2023-02-15T04:13:13;96138.81;;;4.31;76.20
6343;BME280;3204;42.698;23.298;2023-02-15T04:15:39;96138.84;;;4.19;76.21
6343;BME280;3204;42.698;23.298;2023-02-15T04:18:22;96137.19;;;4.30;75.86
6343;BME280;3204;42.698;23.298;2023-02-15T04:21:07;96138.03;;;4.47;75.66
6343;BME280;3204;42.698;23.298;2023-02-15T04:23:51;96142.97;;;4.38;75.50
6343;BME280;3204;42.698;23.298;2023-02-15T04:26:35;96149.72;;;4.41;75.67
6343;BME280;3204;42.698;23.298;2023-02-15T04:29:00;96154.91;;;4.59;75.28
6343;BME280;3204;42.698;23.298;2023-02-15T04:31:26;96161.94;;;4.48;75.00
6343;BME280;3204;42.698;23.298;2023-02-15T04:33:52;96162.34;;;4.40;75.80
6343;BME280;3204;42.698;23.298;2023-02-15T04:36:17;96160.47;;;4.41;76.06
6343;BME280;3204;42.698;23.298;2023-02-15T04:38:42;96165.25;;;4.39;76.07
6343;BME280;3204;42.698;23.298;2023-02-15T04:41:08;96166.00;;;4.34;75.80
6343;BME280;3204;42.698;23.298;2023-02-15T04:43:35;96163.72;;;4.43;75.94
6343;BME280;3204;42.698;23.298;2023-02-15T04:46:01;96161.94;;;4.48;75.87
6343;BME280;3204;42.698;23.298;2023-02-15T04:48:26;96159.91;;;4.55;75.53
6343;BME280;3204;42.698;23.298;2023-02-15T04:50:52;96165.06;;;4.57;75.22
6343;BME280;3204;42.698;23.298;2023-02-15T04:53:18;96167.66;;;4.52;75.21
6343;BME280;3204;42.698;23.298;2023-02-15T04:55:43;96166.41;;;4.43;75.67
6343;BME280;3204;42.698;23.298;2023-02-15T04:58:08;96165.28;;;4.55;75.35
6343;BME280;3204;42.698;23.298;2023-02-15T05:00:34;96171.25;;;4.57;75.69
6343;BME280;3204;42.698;23.298;2023-02-15T05:02:59;96176.03;;;4.55;75.09
6343;BME280;3204;42.698;23.298;2023-02-15T05:05:25;96177.25;;;4.48;75.81
6343;BME280;3204;42.698;23.298;2023-02-15T05:07:51;96175.25;;;4.55;75.22
6343;BME280;3204;42.698;23.298;2023-02-15T05:10:16;96179.31;;;4.57;75.64
6343;BME280;3204;42.698;23.298;2023-02-15T05:12:41;96179.34;;;4.74;74.45
6343;BME280;3204;42.698;23.298;2023-02-15T05:15:07;96186.41;;;4.63;74.94
6343;BME280;3204;42.698;23.298;2023-02-15T05:17:33;96186.16;;;4.65;74.88
6343;BME280;3204;42.698;23.298;2023-02-15T05:19:59;96187.94;;;4.59;74.65
6343;BME280;3204;42.698;23.298;2023-02-15T05:22:24;96191.13;;;4.56;75.27
6343;BME280;3204;42.698;23.298;2023-02-15T05:24:50;96195.94;;;4.71;74.68
6343;BME280;3204;42.698;23.298;2023-02-15T05:27:34;96204.09;;;4.76;74.99
6343;BME280;3204;42.698;23.298;2023-02-15T05:30:18;96202.94;;;4.72;74.89
6343;BME280;3204;42.698;23.298;2023-02-15T05:32:43;96207.19;;;4.68;74.60
6343;BME280;3204;42.698;23.298;2023-02-15T05:35:13;96202.13;;;4.71;74.76
6343;BME280;3204;42.698;23.298;2023-02-15T05:37:39;96209.28;;;4.66;74.87
6343;BME280;3204;42.698;23.298;2023-02-15T05:40:05;96209.06;;;4.67;74.81
6343;BME280;3204;42.698;23.298;2023-02-15T05:42:31;96210.03;;;4.61;74.84
6343;BME280;3204;42.698;23.298;2023-02-15T05:44:56;96211.50;;;4.69;74.88
6343;BME280;3204;42.698;23.298;2023-02-15T05:47:22;96214.19;;;4.69;74.66
6343;BME280;3204;42.698;23.298;2023-02-15T05:49:47;96211.25;;;4.70;74.59
6343;BME280;3204;42.698;23.298;2023-02-15T05:52:13;96212.56;;;4.68;74.88
6343;BME280;3204;42.698;23.298;2023-02-15T05:54:38;96214.19;;;4.69;74.33
6343;BME280;3204;42.698;23.298;2023-02-15T05:57:04;96220.03;;;4.66;74.77
6343;BME280;3204;42.698;23.298;2023-02-15T05:59:29;96216.47;;;4.60;74.65
6343;BME280;3204;42.698;23.298;2023-02-15T06:01:54;96216.28;;;4.67;75.05
6343;BME280;3204;42.698;23.298;2023-02-15T06:04:20;96212.28;;;4.69;74.52
6343;BME280;3204;42.698;23.298;2023-02-15T06:06:45;96215.34;;;4.73;74.38
6343;BME280;3204;42.698;23.298;2023-02-15T06:09:12;96218.34;;;4.76;74.17
6343;BME280;3204;42.698;23.298;2023-02-15T06:11:37;96214.91;;;4.64;74.99
6343;BME280;3204;42.698;23.298;2023-02-15T06:14:03;96213.78;;;4.60;75.06
6343;BME280;3204;42.698;23.298;2023-02-15T06:16:29;96210.91;;;4.67;74.41
6343;BME280;3204;42.698;23.298;2023-02-15T06:18:55;96216.78;;;4.64;74.79
6343;BME280;3204;42.698;23.298;2023-02-15T06:21:20;96220.44;;;4.74;74.61
6343;BME280;3204;42.698;23.298;2023-02-15T06:23:46;96226.78;;;4.68;74.88
6343;BME280;3204;42.698;23.298;2023-02-15T06:26:11;96224.44;;;4.72;74.67
6343;BME280;3204;42.698;23.298;2023-02-15T06:28:36;96226.66;;;4.75;74.54
6343;BME280;3204;42.698;23.298;2023-02-15T06:31:03;96226.47;;;4.65;74.51
6343;BME280;3204;42.698;23.298;2023-02-15T06:33:28;96223.72;;;4.76;74.41
6343;BME280;3204;42.698;23.298;2023-02-15T06:35:55;96221.38;;;4.80;74.45
6343;BME280;3204;42.698;23.298;2023-02-15T06:38:21;96220.41;;;4.86;73.79
6343;BME280;3204;42.698;23.298;2023-02-15T06:40:47;96222.47;;;4.95;73.78
6343;BME280;3204;42.698;23.298;2023-02-15T06:43:12;96225.63;;;5.09;73.12
6343;BME280;3204;42.698;23.298;2023-02-15T06:45:38;96214.88;;;5.09;73.45
6343;BME280;3204;42.698;23.298;2023-02-15T06:48:04;96226.00;;;5.12;73.33
6343;BME280;3204;42.698;23.298;2023-02-15T06:50:32;96225.66;;;5.25;72.61
6343;BME280;3204;42.698;23.298;2023-02-15T06:52:58;96225.81;;;5.19;72.59
6343;BME280;3204;42.698;23.298;2023-02-15T06:55:24;96221.41;;;5.13;72.91
6343;BME280;3204;42.698;23.298;2023-02-15T06:57:49;96227.09;;;5.16;72.29
6343;BME280;3204;42.698;23.298;2023-02-15T07:00:15;96228.41;;;5.30;72.29
6343;BME280;3204;42.698;23.298;2023-02-15T07:02:41;96227.78;;;5.40;71.20
6343;BME280;3204;42.698;23.298;2023-02-15T07:05:06;96217.34;;;5.43;71.52
6343;BME280;3204;42.698;23.298;2023-02-15T07:07:32;96234.88;;;5.46;71.20
6343;BME280;3204;42.698;23.298;2023-02-15T07:09:57;96230.47;;;5.56;71.22
6343;BME280;3204;42.698;23.298;2023-02-15T07:12:22;96223.69;;;5.54;70.99
6343;BME280;3204;42.698;23.298;2023-02-15T07:15:07;96228.19;;;5.48;71.03
6343;BME280;3204;42.698;23.298;2023-02-15T07:17:35;96230.03;;;5.48;71.33
6343;BME280;3204;42.698;23.298;2023-02-15T07:20:00;96232.47;;;5.66;70.60
6343;BME280;3204;42.698;23.298;2023-02-15T07:22:26;96227.50;;;5.74;70.83
6343;BME280;3204;42.698;23.298;2023-02-15T07:24:53;96238.28;;;5.74;69.85
6343;BME280;3204;42.698;23.298;2023-02-15T07:27:20;96245.72;;;5.84;69.76
6343;BME280;3204;42.698;23.298;2023-02-15T07:29:46;96231.69;;;5.82;69.47
6343;BME280;3204;42.698;23.298;2023-02-15T07:32:12;96238.00;;;5.92;69.23
6343;BME280;3204;42.698;23.298;2023-02-15T07:34:37;96238.53;;;5.89;69.17
6343;BME280;3204;42.698;23.298;2023-02-15T07:37:02;96232.91;;;5.91;69.13
6343;BME280;3204;42.698;23.298;2023-02-15T07:39:29;96224.47;;;5.87;69.27
6343;BME280;3204;42.698;23.298;2023-02-15T07:41:55;96226.63;;;5.85;68.92
6343;BME280;3204;42.698;23.298;2023-02-15T07:44:20;96225.78;;;5.85;68.60
6343;BME280;3204;42.698;23.298;2023-02-15T07:46:46;96227.44;;;5.86;68.96
6343;BME280;3204;42.698;23.298;2023-02-15T07:49:11;96229.06;;;5.70;68.83
6343;BME280;3204;42.698;23.298;2023-02-15T07:51:37;96219.09;;;5.87;68.54
6343;BME280;3204;42.698;23.298;2023-02-15T07:54:02;96222.84;;;5.86;69.00
6343;BME280;3204;42.698;23.298;2023-02-15T07:56:28;96219.28;;;5.81;68.81
6343;BME280;3204;42.698;23.298;2023-02-15T07:58:53;96220.16;;;5.86;69.10
6343;BME280;3204;42.698;23.298;2023-02-15T08:01:26;96211.50;;;6.01;68.74
6343;BME280;3204;42.698;23.298;2023-02-15T08:03:53;96216.91;;;6.22;67.69
6343;BME280;3204;42.698;23.298;2023-02-15T08:06:19;96220.31;;;6.18;67.60
6343;BME280;3204;42.698;23.298;2023-02-15T08:08:44;96223.53;;;6.15;67.81
6343;BME280;3204;42.698;23.298;2023-02-15T08:16:24;96220.19;;;6.08;67.71
6343;BME280;3204;42.698;23.298;2023-02-15T08:18:51;96224.97;;;6.01;67.69
6343;BME280;3204;42.698;23.298;2023-02-15T08:21:18;96222.88;;;6.08;67.54
6343;BME280;3204;42.698;23.298;2023-02-15T08:23:43;96225.81;;;6.06;67.09
6343;BME280;3204;42.698;23.298;2023-02-15T08:26:09;96235.16;;;5.99;67.73
6343;BME280;3204;42.698;23.298;2023-02-15T08:28:34;96226.41;;;6.08;67.63
6343;BME280;3204;42.698;23.298;2023-02-15T08:31:07;96236.22;;;5.98;67.83
6343;BME280;3204;42.698;23.298;2023-02-15T08:33:34;96236.22;;;5.98;67.58
6343;BME280;3204;42.698;23.298;2023-02-15T08:36:14;96234.25;;;6.10;67.49
6343;BME280;3204;42.698;23.298;2023-02-15T08:38:40;96233.28;;;5.99;66.80
6343;BME280;3204;42.698;23.298;2023-02-15T08:41:15;96227.06;;;5.99;67.40
6343;BME280;3204;42.698;23.298;2023-02-15T08:43:42;96237.91;;;6.04;67.50
6343;BME280;3204;42.698;23.298;2023-02-15T08:46:08;96229.47;;;6.17;67.04
6343;BME280;3204;42.698;23.298;2023-02-15T08:48:34;96235.81;;;6.27;66.23
6343;BME280;3204;42.698;23.298;2023-02-15T08:51:11;96233.13;;;6.27;66.37
6343;BME280;3204;42.698;23.298;2023-02-15T08:53:38;96234.56;;;6.35;66.14
6343;BME280;3204;42.698;23.298;2023-02-15T08:56:04;96233.66;;;6.51;65.84
6343;BME280;3204;42.698;23.298;2023-02-15T08:58:30;96231.34;;;6.59;65.46
6343;BME280;3204;42.698;23.298;2023-02-15T09:00:57;96238.44;;;6.65;64.32
6343;BME280;3204;42.698;23.298;2023-02-15T09:03:23;96235.25;;;6.73;64.34
6343;BME280;3204;42.698;23.298;2023-02-15T09:05:49;96245.09;;;6.84;64.10
6343;BME280;3204;42.698;23.298;2023-02-15T09:08:15;96247.66;;;6.96;64.01
6343;BME280;3204;42.698;23.298;2023-02-15T09:10:41;96243.94;;;7.02;62.65
6343;BME280;3204;42.698;23.298;2023-02-15T09:13:06;96238.13;;;7.15;63.06
6343;BME280;3204;42.698;23.298;2023-02-15T09:15:32;96235.69;;;7.13;63.05
6343;BME280;3204;42.698;23.298;2023-02-15T09:17:58;96237.34;;;7.19;61.46
6343;BME280;3204;42.698;23.298;2023-02-15T09:20:27;96237.50;;;7.08;61.59
6343;BME280;3204;42.698;23.298;2023-02-15T09:22:53;96234.22;;;7.01;62.73
6343;BME280;3204;42.698;23.298;2023-02-15T09:25:19;96239.47;;;7.12;62.14
6343;BME280;3204;42.698;23.298;2023-02-15T09:27:45;96237.09;;;7.21;62.02
6343;BME280;3204;42.698;23.298;2023-02-15T09:30:11;96244.13;;;7.22;61.71
6343;BME280;3204;42.698;23.298;2023-02-15T09:32:36;96247.69;;;7.27;61.40
6343;BME280;3204;42.698;23.298;2023-02-15T09:35:02;96242.94;;;7.39;60.78
6343;BME280;3204;42.698;23.298;2023-02-15T09:37:27;96242.63;;;7.36;61.24
6343;BME280;3204;42.698;23.298;2023-02-15T09:39:54;96232.63;;;7.31;61.05
6343;BME280;3204;42.698;23.298;2023-02-15T09:59:01;96226.50;;;7.82;60.52
6343;BME280;3204;42.698;23.298;2023-02-15T10:01:40;96231.16;;;7.87;60.42
6343;BME280;3204;42.698;23.298;2023-02-15T10:12:26;96231.97;;;8.24;59.49
6343;BME280;3204;42.698;23.298;2023-02-15T10:26:21;96220.94;;;7.99;58.85
6343;BME280;3204;42.698;23.298;2023-02-15T10:29:03;96211.06;;;8.19;57.68
6343;BME280;3204;42.698;23.298;2023-02-15T10:37:15;96214.72;;;8.40;57.65
6343;BME280;3204;42.698;23.298;2023-02-15T10:40:08;96202.38;;;8.69;57.77
6343;BME280;3204;42.698;23.298;2023-02-15T10:48:25;96202.97;;;8.76;57.14
6343;BME280;3204;42.698;23.298;2023-02-15T10:51:00;96192.16;;;8.86;56.84
6343;BME280;3204;42.698;23.298;2023-02-15T11:01:37;96187.78;;;8.70;57.56
6343;BME280;3204;42.698;23.298;2023-02-15T11:06:53;96193.78;;;8.97;55.41
6343;BME280;3204;42.698;23.298;2023-02-15T11:09:22;96193.75;;;8.77;55.42
6343;BME280;3204;42.698;23.298;2023-02-15T11:11:53;96193.72;;;8.62;56.13
6343;BME280;3204;42.698;23.298;2023-02-15T11:17:08;96194.72;;;8.46;56.15
6343;BME280;3204;42.698;23.298;2023-02-15T11:19:52;96187.47;;;8.51;57.00
6343;BME280;3204;42.698;23.298;2023-02-15T11:22:20;96185.81;;;8.40;56.55
6343;BME280;3204;42.698;23.298;2023-02-15T11:24:46;96178.22;;;8.42;56.62
6343;BME280;3204;42.698;23.298;2023-02-15T11:29:41;96181.59;;;8.79;56.32
6343;BME280;3204;42.698;23.298;2023-02-15T11:32:35;96174.59;;;8.88;56.71
6343;BME280;3204;42.698;23.298;2023-02-15T11:37:53;96183.53;;;9.04;55.56
6343;BME280;3204;42.698;23.298;2023-02-15T11:40:23;96183.22;;;8.80;55.45
6343;BME280;3204;42.698;23.298;2023-02-15T11:42:51;96175.34;;;8.69;55.50
6343;BME280;3204;42.698;23.298;2023-02-15T11:45:28;96175.34;;;8.74;55.57
6343;BME280;3204;42.698;23.298;2023-02-15T11:47:55;96176.44;;;8.73;55.43
6343;BME280;3204;42.698;23.298;2023-02-15T11:50:40;96166.69;;;8.62;56.42
6343;BME280;3204;42.698;23.298;2023-02-15T11:53:14;96166.66;;;8.47;57.19
6343;BME280;3204;42.698;23.298;2023-02-15T11:55:43;96165.53;;;8.43;57.02
6343;BME280;3204;42.698;23.298;2023-02-15T12:00:47;96157.16;;;8.44;56.94
6343;BME280;3204;42.698;23.298;2023-02-15T12:03:27;96142.34;;;8.57;56.48
6343;BME280;3204;42.698;23.298;2023-02-15T12:06:02;96141.00;;;8.59;56.64
6343;BME280;3204;42.698;23.298;2023-02-15T12:08:40;96140.16;;;8.54;56.49
6343;BME280;3204;42.698;23.298;2023-02-15T12:11:14;96133.91;;;8.48;57.02
6343;BME280;3204;42.698;23.298;2023-02-15T12:14:12;96138.78;;;8.51;56.89
6343;BME280;3204;42.698;23.298;2023-02-15T12:17:23;96134.72;;;8.49;56.61
6343;BME280;3204;42.698;23.298;2023-02-15T12:19:37;96126.63;;;8.49;56.25
6343;BME280;3204;42.698;23.298;2023-02-15T12:22:05;96125.78;;;8.48;56.03
6343;BME280;3204;42.698;23.298;2023-02-15T12:24:44;96127.75;;;8.68;56.68
6343;BME280;3204;42.698;23.298;2023-02-15T12:27:18;96119.31;;;8.44;55.84
6343;BME280;3204;42.698;23.298;2023-02-15T12:29:59;96124.22;;;8.67;56.17
6343;BME280;3204;42.698;23.298;2023-02-15T12:32:35;96129.38;;;8.84;56.13
6343;BME280;3204;42.698;23.298;2023-02-15T12:35:17;96122.34;;;8.68;55.57
6343;BME280;3204;42.698;23.298;2023-02-15T12:38:19;96112.88;;;8.80;55.86
6343;BME280;3204;42.698;23.298;2023-02-15T12:41:01;96107.63;;;8.24;56.53
6343;BME280;3204;42.698;23.298;2023-02-15T12:43:34;96103.06;;;8.34;56.53
6343;BME280;3204;42.698;23.298;2023-02-15T12:46:23;96106.31;;;8.31;56.41
6343;BME280;3204;42.698;23.298;2023-02-15T12:49:17;96096.84;;;8.34;56.57
6343;BME280;3204;42.698;23.298;2023-02-15T12:51:50;96082.28;;;8.45;57.39
6343;BME280;3204;42.698;23.298;2023-02-15T12:54:33;96090.13;;;8.61;56.53
6343;BME280;3204;42.698;23.298;2023-02-15T12:59:59;96090.66;;;8.53;56.20
6343;BME280;3204;42.698;23.298;2023-02-15T13:08:16;96085.56;;;8.77;56.34
6343;BME280;3204;42.698;23.298;2023-02-15T13:11:25;96080.41;;;9.00;55.96
6343;BME280;3204;42.698;23.298;2023-02-15T13:13:58;96086.13;;;9.04;55.08
6343;BME280;3204;42.698;23.298;2023-02-15T13:16:33;96074.75;;;9.07;54.79
6343;BME280;3204;42.698;23.298;2023-02-15T13:19:05;96076.94;;;8.95;54.27
6343;BME280;3204;42.698;23.298;2023-02-15T13:21:37;96072.31;;;8.95;55.61
6343;BME280;3204;42.698;23.298;2023-02-15T13:26:45;96076.31;;;9.48;53.93
6343;BME280;3204;42.698;23.298;2023-02-15T13:29:18;96084.72;;;9.46;53.76
6343;BME280;3204;42.698;23.298;2023-02-15T13:31:46;96087.63;;;9.65;53.88
6343;BME280;3204;42.698;23.298;2023-02-15T13:34:33;96074.81;;;10.10;52.60
6343;BME280;3204;42.698;23.298;2023-02-15T13:37:20;96077.91;;;10.37;51.69
6343;BME280;3204;42.698;23.298;2023-02-15T13:50:51;96086.56;;;11.78;49.66
6343;BME280;3204;42.698;23.298;2023-02-15T13:56:07;96096.34;;;12.03;49.03
6343;BME280;3204;42.698;23.298;2023-02-15T14:01:40;96095.47;;;11.84;48.52
6343;BME280;3204;42.698;23.298;2023-02-15T14:04:20;96097.41;;;11.50;49.85
6343;BME280;3204;42.698;23.298;2023-02-15T14:12:07;96104.13;;;11.29;50.11
6343;BME280;3204;42.698;23.298;2023-02-15T14:20:28;96112.63;;;11.51;49.77
6343;BME280;3204;42.698;23.298;2023-02-15T14:26:32;96115.94;;;11.43;49.37
6343;BME280;3204;42.698;23.298;2023-02-15T14:31:54;96118.06;;;10.84;51.15
6343;BME280;3204;42.698;23.298;2023-02-15T14:34:27;96111.84;;;10.78;51.10
6343;BME280;3204;42.698;23.298;2023-02-15T14:36:56;96114.66;;;10.63;51.25
6343;BME280;3204;42.698;23.298;2023-02-15T14:42:56;96101.47;;;9.68;53.05
6343;BME280;3204;42.698;23.298;2023-02-15T14:50:42;96102.28;;;9.64;53.83
6343;BME280;3204;42.698;23.298;2023-02-15T14:58:32;96102.88;;;8.86;55.39
6343;BME280;3204;42.698;23.298;2023-02-15T15:01:07;96102.59;;;8.77;56.01
6343;BME280;3204;42.698;23.298;2023-02-15T15:03:35;96101.81;;;8.97;54.93
6343;BME280;3204;42.698;23.298;2023-02-15T15:06:02;96105.84;;;8.94;55.55
6343;BME280;3204;42.698;23.298;2023-02-15T15:08:38;96111.78;;;8.91;55.54
6343;BME280;3204;42.698;23.298;2023-02-15T15:13:57;96100.19;;;8.76;55.68
6343;BME280;3204;42.698;23.298;2023-02-15T15:16:45;96097.72;;;8.64;56.18
6343;BME280;3204;42.698;23.298;2023-02-15T15:19:12;96104.16;;;8.48;56.61
6343;BME280;3204;42.698;23.298;2023-02-15T15:22:03;96103.34;;;8.28;56.23
6343;BME280;3204;42.698;23.298;2023-02-15T15:27:39;96103.84;;;8.25;57.15
6343;BME280;3204;42.698;23.298;2023-02-15T15:32:52;96116.41;;;7.99;58.04
6343;BME280;3204;42.698;23.298;2023-02-15T15:43:40;96119.72;;;7.60;58.62
6343;BME280;3204;42.698;23.298;2023-02-15T15:49:28;96117.31;;;7.22;60.51
6343;BME280;3204;42.698;23.298;2023-02-15T15:51:59;96118.88;;;7.13;61.02
6343;BME280;3204;42.698;23.298;2023-02-15T15:54:26;96114.25;;;7.08;61.34
6343;BME280;3204;42.698;23.298;2023-02-15T15:56:58;96126.13;;;7.07;61.53
6343;BME280;3204;42.698;23.298;2023-02-15T15:59:29;96125.00;;;7.03;61.21
6343;BME280;3204;42.698;23.298;2023-02-15T16:01:56;96118.75;;;6.98;62.04
6343;BME280;3204;42.698;23.298;2023-02-15T16:04:31;96123.59;;;6.96;62.32
6343;BME280;3204;42.698;23.298;2023-02-15T16:07:03;96122.84;;;6.74;62.63
6343;BME280;3204;42.698;23.298;2023-02-15T16:09:38;96126.25;;;6.59;63.11
6343;BME280;3204;42.698;23.298;2023-02-15T16:12:04;96117.03;;;6.55;63.16
6343;BME280;3204;42.698;23.298;2023-02-15T16:14:40;96118.50;;;6.41;63.59
6343;BME280;3204;42.698;23.298;2023-02-15T16:17:13;96126.78;;;6.35;63.69
6343;BME280;3204;42.698;23.298;2023-02-15T16:19:40;96119.53;;;6.14;64.64
6343;BME280;3204;42.698;23.298;2023-02-15T16:22:16;96125.69;;;6.09;64.77
6343;BME280;3204;42.698;23.298;2023-02-15T16:27:35;96128.13;;;6.11;64.89
6343;BME280;3204;42.698;23.298;2023-02-15T16:30:35;96127.94;;;6.17;64.64
6343;BME280;3204;42.698;23.298;2023-02-15T16:33:12;96126.28;;;6.16;64.38
6343;BME280;3204;42.698;23.298;2023-02-15T16:35:55;96131.91;;;5.88;65.89